Time;durP1;ratioP1;P1;durP2;ratioP2;P2;SDS_P1;SDS_P2;PMS_P1;PMS_P2;Temp;Humidity;BMP_temperature;BMP_pressure;BME280_temperature;BME280_humidity;BME280_pressure;Samples;Min_cycle;Max_cycle;Signal;HPM_P1;HPM_P2
2021/05/30 00:00:17;;;;;;;3.28;3.08;;;7.30;99.90;;;;;;4734817;30;20085;-83
2021/05/30 00:02:52;;;;;;;3.22;3.03;;;7.20;99.90;;;;;;4731591;30;20069;-82
2021/05/30 00:05:20;;;;;;;2.42;2.22;;;7.20;99.90;;;;;;4731912;30;20057;-82
2021/05/30 00:07:48;;;;;;;2.30;2.20;;;7.20;99.90;;;;;;4718220;30;20068;-82
2021/05/30 00:10:16;;;;;;;5.07;2.63;;;7.10;99.90;;;;;;4697029;30;20069;-82
2021/05/30 00:12:47;;;;;;;2.70;2.50;;;7.10;99.90;;;;;;4697333;30;20057;-82
2021/05/30 00:15:16;;;;;;;2.55;2.35;;;7.00;99.90;;;;;;4697753;30;20057;-82
2021/05/30 00:17:44;;;;;;;2.90;2.70;;;7.00;99.90;;;;;;4697497;30;20173;-82
2021/05/30 00:20:13;;;;;;;2.72;2.45;;;7.00;99.90;;;;;;4682317;30;20057;-81
2021/05/30 00:22:41;;;;;;;6.40;1.88;;;6.90;99.90;;;;;;4710457;30;20045;-82
2021/05/30 00:25:10;;;;;;;2.40;2.20;;;6.80;99.90;;;;;;4695236;30;20049;-82
2021/05/30 00:27:40;;;;;;;4.35;2.50;;;6.80;99.90;;;;;;4711891;30;20060;-82
2021/05/30 00:30:34;;;;;;;2.42;2.22;;;6.70;99.90;;;;;;4682054;30;20042;-80
2021/05/30 00:33:02;;;;;;;7.47;3.40;;;6.70;99.90;;;;;;4698166;30;20068;-80
2021/05/30 00:35:30;;;;;;;3.92;3.55;;;6.60;99.90;;;;;;4700976;30;20370;-80
2021/05/30 00:37:58;;;;;;;4.68;4.35;;;6.60;99.90;;;;;;4731386;30;20500;-82
2021/05/30 00:40:26;;;;;;;3.40;2.47;;;6.60;99.90;;;;;;4728713;30;20435;-82
2021/05/30 00:42:54;;;;;;;2.92;2.65;;;6.70;99.90;;;;;;4717444;30;20069;-81
2021/05/30 00:45:22;;;;;;;3.33;2.50;;;6.70;99.90;;;;;;4731215;30;20060;-82
2021/05/30 00:47:50;;;;;;;4.55;3.97;;;6.50;99.90;;;;;;4701189;30;20069;-82
2021/05/30 00:50:21;;;;;;;3.85;2.47;;;6.60;99.90;;;;;;4709138;30;20061;-82
2021/05/30 00:52:49;;;;;;;3.65;3.08;;;6.60;99.90;;;;;;4709635;30;20050;-82
2021/05/30 00:55:18;;;;;;;3.05;2.72;;;6.60;99.90;;;;;;4708941;30;20084;-81
2021/05/30 00:57:46;;;;;;;2.97;2.67;;;6.70;99.90;;;;;;4682308;30;20061;-82
2021/05/30 01:00:15;;;;;;;5.90;3.58;;;6.70;99.90;;;;;;4696615;30;20084;-82
2021/05/30 01:02:43;;;;;;;6.25;2.88;;;6.70;99.90;;;;;;4709931;30;20053;-82
2021/05/30 01:05:12;;;;;;;2.67;2.47;;;6.80;99.90;;;;;;4713318;30;20539;-81
2021/05/30 01:07:42;;;;;;;2.67;2.47;;;6.80;99.90;;;;;;4699476;30;20529;-82
2021/05/30 01:10:35;;;;;;;3.70;3.40;;;6.80;99.90;;;;;;4696496;30;20053;-82
2021/05/30 01:13:04;;;;;;;2.35;2.15;;;6.80;99.90;;;;;;4698948;30;20060;-82
2021/05/30 01:15:33;;;;;;;3.83;2.70;;;6.80;99.90;;;;;;4685164;30;20057;-81
2021/05/30 01:18:01;;;;;;;3.40;2.53;;;6.90;99.90;;;;;;4714717;30;20357;-82
2021/05/30 01:20:29;;;;;;;3.22;3.03;;;6.80;99.90;;;;;;4713820;30;20421;-82
2021/05/30 01:23:04;;;;;;;3.53;3.22;;;6.80;99.90;;;;;;4684246;30;20433;-82
2021/05/30 01:25:32;;;;;;;2.30;2.10;;;6.90;99.90;;;;;;4711253;30;20056;-82
2021/05/30 01:28:00;;;;;;;3.08;2.58;;;6.90;99.90;;;;;;4698967;30;20079;-82
2021/05/30 01:30:28;;;;;;;4.72;2.55;;;6.90;99.90;;;;;;4712361;30;20053;-82
2021/05/30 01:32:56;;;;;;;2.70;2.50;;;6.90;99.90;;;;;;4698355;30;20045;-82
2021/05/30 01:35:24;;;;;;;2.85;2.45;;;6.90;99.90;;;;;;4699685;30;20069;-82
2021/05/30 01:37:52;;;;;;;3.65;2.80;;;6.90;99.90;;;;;;4718848;30;20071;-82
2021/05/30 01:40:21;;;;;;;3.45;3.22;;;6.80;99.90;;;;;;4747636;30;20087;-83
2021/05/30 01:42:50;;;;;;;4.25;3.85;;;6.80;99.90;;;;;;4718481;30;20052;-82
2021/05/30 01:45:19;;;;;;;7.97;3.72;;;6.70;99.90;;;;;;4732687;30;20060;-82
2021/05/30 01:47:47;;;;;;;2.97;2.67;;;6.70;99.90;;;;;;4749925;30;20079;-82
2021/05/30 01:50:20;;;;;;;2.70;2.40;;;6.60;99.90;;;;;;4732247;30;20052;-82
2021/05/30 01:52:49;;;;;;;2.42;2.22;;;6.70;99.90;;;;;;4732588;30;20047;-82
2021/05/30 01:55:30;;;;;;;5.00;2.70;;;6.50;99.90;;;;;;4717147;30;20060;-82
2021/05/30 01:57:58;;;;;;;3.63;2.45;;;6.40;99.90;;;;;;4718546;30;20060;-82
2021/05/30 02:00:29;;;;;;;3.17;2.95;;;6.30;99.90;;;;;;4746926;30;20056;-82
2021/05/30 02:02:57;;;;;;;2.47;2.28;;;6.20;99.90;;;;;;4748599;30;20087;-82
2021/05/30 02:05:25;;;;;;;3.95;2.60;;;6.20;99.90;;;;;;4731397;30;20056;-82
2021/05/30 02:07:54;;;;;;;2.70;2.53;;;6.20;99.90;;;;;;4749439;30;20067;-82
2021/05/30 02:10:23;;;;;;;2.53;2.30;;;6.10;99.90;;;;;;4699368;30;20049;-82
2021/05/30 02:12:58;;;;;;;3.83;2.72;;;6.00;99.90;;;;;;4698163;30;20049;-82
2021/05/30 02:15:26;;;;;;;3.00;2.80;;;5.90;99.90;;;;;;4698284;30;20382;-82
2021/05/30 02:17:54;;;;;;;6.00;2.90;;;5.90;99.90;;;;;;4712367;30;20061;-82
2021/05/30 02:20:32;;;;;;;2.60;2.40;;;5.80;99.90;;;;;;4697473;30;20053;-82
2021/05/30 02:23:00;;;;;;;2.75;2.55;;;5.80;99.90;;;;;;4698199;30;20564;-82
2021/05/30 02:25:28;;;;;;;2.55;2.35;;;5.80;99.90;;;;;;4711749;30;20416;-82
2021/05/30 02:27:57;;;;;;;3.17;2.88;;;5.80;99.90;;;;;;4712333;30;20659;-82
2021/05/30 02:30:25;;;;;;;3.47;3.17;;;5.80;99.90;;;;;;4712423;30;20045;-82
2021/05/30 02:32:53;;;;;;;4.53;2.35;;;5.80;99.90;;;;;;4713206;30;20049;-82
2021/05/30 02:35:22;;;;;;;22.33;4.53;;;5.80;99.90;;;;;;4698104;30;20064;-81
2021/05/30 02:37:50;;;;;;;2.88;2.55;;;5.70;99.90;;;;;;4748342;30;20048;-82
2021/05/30 02:40:18;;;;;;;3.42;2.65;;;5.70;99.90;;;;;;4730249;30;20067;-82
2021/05/30 02:42:46;;;;;;;2.90;2.60;;;5.70;99.90;;;;;;4717237;30;20052;-82
2021/05/30 02:45:14;;;;;;;2.90;2.63;;;5.70;99.90;;;;;;4732849;30;20051;-82
2021/05/30 02:47:42;;;;;;;3.40;2.95;;;5.70;99.90;;;;;;4704941;30;20413;-82
2021/05/30 02:50:11;;;;;;;2.50;2.30;;;5.70;99.90;;;;;;4711301;30;20052;-82
2021/05/30 02:52:39;;;;;;;2.63;2.42;;;5.60;99.90;;;;;;4697488;30;20061;-82
2021/05/30 02:55:08;;;;;;;4.50;2.90;;;5.60;99.90;;;;;;4710711;30;20060;-81
2021/05/30 02:57:36;;;;;;;5.28;2.92;;;5.60;99.90;;;;;;4711833;30;20060;-82
2021/05/30 03:00:06;;;;;;;2.35;2.22;;;5.60;99.90;;;;;;4711378;30;20484;-82
2021/05/30 03:02:34;;;;;;;2.63;2.25;;;5.50;99.90;;;;;;4713221;30;20312;-82
2021/05/30 03:05:04;;;;;;;4.00;2.28;;;5.50;99.90;;;;;;4712939;30;20428;-82
2021/05/30 03:07:32;;;;;;;3.28;2.88;;;5.40;99.90;;;;;;4683553;30;20353;-82
2021/05/30 03:10:00;;;;;;;2.38;2.17;;;5.40;99.90;;;;;;4695276;30;20492;-82
2021/05/30 03:12:28;;;;;;;2.95;2.40;;;5.40;99.90;;;;;;4697352;30;20053;-82
2021/05/30 03:14:56;;;;;;;3.85;2.65;;;5.30;99.90;;;;;;4711637;30;20053;-82
2021/05/30 03:17:23;;;;;;;2.95;2.63;;;5.30;99.90;;;;;;4715877;30;20064;-82
2021/05/30 03:19:51;;;;;;;3.75;3.30;;;5.30;99.90;;;;;;4714219;30;20379;-83
2021/05/30 03:22:20;;;;;;;3.55;2.22;;;5.30;99.90;;;;;;4716133;30;20057;-82
2021/05/30 03:24:48;;;;;;;3.58;3.28;;;5.30;99.90;;;;;;4714828;30;20045;-82
2021/05/30 03:27:16;;;;;;;5.10;3.25;;;5.30;99.90;;;;;;4715715;30;20516;-82
2021/05/30 03:29:44;;;;;;;2.55;2.35;;;5.20;99.90;;;;;;4700262;30;20060;-82
2021/05/30 03:32:12;;;;;;;5.32;2.88;;;5.10;99.90;;;;;;4716518;30;20084;-82
2021/05/30 03:34:40;;;;;;;4.30;3.88;;;5.10;99.90;;;;;;4671516;30;20057;-82
2021/05/30 03:37:08;;;;;;;3.15;2.83;;;5.10;99.90;;;;;;4712115;30;20049;-82
2021/05/30 03:39:40;;;;;;;4.40;4.00;;;5.20;99.90;;;;;;4748241;30;20083;-82
2021/05/30 03:42:36;;;;;;;3.63;2.92;;;5.20;99.90;;;;;;4734456;30;20334;-82
2021/05/30 03:45:05;;;;;;;3.05;2.72;;;5.20;99.90;;;;;;4732356;30;20056;-82
2021/05/30 03:47:33;;;;;;;2.92;2.72;;;5.20;99.90;;;;;;4721312;30;20079;-82
2021/05/30 03:50:01;;;;;;;4.63;3.22;;;5.20;99.90;;;;;;4719925;30;20059;-82
2021/05/30 03:52:30;;;;;;;3.85;3.10;;;5.20;99.90;;;;;;4750635;30;20056;-82
2021/05/30 03:54:58;;;;;;;3.65;3.33;;;5.30;99.90;;;;;;4733939;30;20523;-82
2021/05/30 03:57:26;;;;;;;3.88;3.45;;;5.20;99.90;;;;;;4720710;30;20055;-82
2021/05/30 03:59:54;;;;;;;3.42;3.13;;;5.30;99.90;;;;;;4734878;30;20056;-82
2021/05/30 04:02:26;;;;;;;2.97;2.78;;;5.40;99.90;;;;;;4731998;30;20061;-82
2021/05/30 04:04:54;;;;;;;3.22;2.75;;;5.40;99.90;;;;;;4731828;30;20052;-82
2021/05/30 04:07:21;;;;;;;3.63;3.05;;;5.50;99.90;;;;;;4732169;30;20386;-82
2021/05/30 04:09:49;;;;;;;2.85;2.65;;;5.50;99.90;;;;;;4686682;30;20054;-82
2021/05/30 04:12:20;;;;;;;3.00;2.78;;;5.50;99.90;;;;;;4711444;30;20069;-82
2021/05/30 04:14:47;;;;;;;2.58;2.35;;;5.60;99.90;;;;;;4696676;30;20053;-81
2021/05/30 04:17:15;;;;;;;4.68;3.50;;;5.70;99.90;;;;;;4682961;30;20058;-82
2021/05/30 04:19:43;;;;;;;3.63;2.85;;;5.70;99.90;;;;;;4682836;30;20066;-83
2021/05/30 04:22:11;;;;;;;3.90;3.35;;;5.80;99.90;;;;;;4696448;30;20054;-82
2021/05/30 04:24:39;;;;;;;4.15;3.75;;;5.90;99.90;;;;;;4696162;30;20058;-82
2021/05/30 04:27:07;;;;;;;3.72;3.20;;;6.10;99.90;;;;;;4697152;30;20061;-81
2021/05/30 04:29:35;;;;;;;5.88;5.10;;;6.20;99.90;;;;;;4697351;30;20056;-82
2021/05/30 04:32:04;;;;;;;4.15;3.50;;;6.30;99.90;;;;;;4698166;30;20073;-82
2021/05/30 04:34:33;;;;;;;6.50;3.55;;;6.50;99.90;;;;;;4696349;30;20062;-82
2021/05/30 04:37:08;;;;;;;6.53;4.18;;;6.70;99.90;;;;;;4722639;30;20388;-82
2021/05/30 04:39:36;;;;;;;7.40;4.78;;;6.90;99.90;;;;;;4729816;30;20064;-82
2021/05/30 04:42:07;;;;;;;3.85;3.42;;;7.20;99.90;;;;;;4716349;30;20053;-82
2021/05/30 04:44:36;;;;;;;5.05;4.03;;;7.50;99.90;;;;;;4717973;30;20061;-82
2021/05/30 04:47:12;;;;;;;6.07;4.22;;;8.10;99.90;;;;;;4711041;30;20050;-83
2021/05/30 04:49:41;;;;;;;4.50;4.13;;;8.40;99.90;;;;;;4681142;30;20046;-82
2021/05/30 04:52:15;;;;;;;4.85;3.72;;;8.80;99.90;;;;;;4696363;30;20061;-83
2021/05/30 04:54:47;;;;;;;4.38;3.95;;;9.10;99.90;;;;;;4694134;30;20054;-83
2021/05/30 04:57:21;;;;;;;7.18;4.68;;;9.30;99.90;;;;;;4681805;30;20053;-82
2021/05/30 05:00:16;;;;;;;4.95;4.32;;;9.50;99.90;;;;;;4696131;30;20065;-82
2021/05/30 05:06:32;;;;;;;5.05;3.30;;;9.90;99.90;;;;;;4669271;30;20689;-82
2021/05/30 05:10:14;;;;;;;5.75;5.03;;;9.80;99.90;;;;;;4660926;30;20058;-82
2021/05/30 05:12:40;;;;;;;7.47;5.03;;;10.20;99.90;;;;;;4674078;30;20062;-83
2021/05/30 05:15:42;;;;;;;3.53;3.22;;;10.70;99.90;;;;;;4684967;30;20080;-82
2021/05/30 05:18:24;;;;;;;8.00;3.50;;;11.30;99.90;;;;;;4706870;30;20181;-83
2021/05/30 05:21:24;;;;;;;5.75;4.10;;;11.50;99.90;;;;;;4681438;30;20049;-82
2021/05/30 05:23:56;;;;;;;3.90;3.45;;;11.70;99.90;;;;;;4697809;30;20056;-82
2021/05/30 05:26:25;;;;;;;4.57;4.18;;;11.80;99.90;;;;;;4713128;30;20523;-82
2021/05/30 05:28:53;;;;;;;3.78;3.28;;;11.90;99.90;;;;;;4698145;30;20049;-82
2021/05/30 05:31:26;;;;;;;5.13;4.03;;;12.10;99.90;;;;;;4711951;30;20053;-82
2021/05/30 05:33:57;;;;;;;3.63;3.17;;;12.50;99.90;;;;;;4698257;30;20053;-82
2021/05/30 05:36:34;;;;;;;6.18;3.47;;;12.50;99.90;;;;;;4709389;30;20064;-83
2021/05/30 05:39:11;;;;;;;3.10;2.73;;;12.30;99.90;;;;;;4731823;30;20514;-82
2021/05/30 05:41:54;;;;;;;4.18;3.78;;;12.40;99.90;;;;;;4718326;30;20290;-82
2021/05/30 05:44:24;;;;;;;3.80;3.43;;;12.80;99.90;;;;;;4732222;30;20060;-82
2021/05/30 05:46:52;;;;;;;3.22;2.92;;;12.70;99.90;;;;;;4733939;30;20427;-81
2021/05/30 05:49:20;;;;;;;3.03;2.67;;;12.90;98.60;;;;;;4732988;30;20063;-82
2021/05/30 05:51:50;;;;;;;3.10;2.88;;;12.90;99.90;;;;;;4732745;30;20491;-81
2021/05/30 05:54:38;;;;;;;3.75;3.40;;;13.10;99.80;;;;;;4734011;30;20388;-82
2021/05/30 05:57:06;;;;;;;4.55;4.15;;;12.70;99.90;;;;;;4748164;30;20048;-82
2021/05/30 05:59:34;;;;;;;9.30;6.43;;;12.90;99.40;;;;;;4718955;30;20063;-83
2021/05/30 06:02:02;;;;;;;4.47;3.17;;;13.10;99.90;;;;;;4748137;30;20071;-82
2021/05/30 06:04:29;;;;;;;4.72;4.03;;;13.30;98.60;;;;;;4732813;30;20060;-81
2021/05/30 06:06:59;;;;;;;5.32;3.85;;;13.40;98.00;;;;;;4718821;30;20056;-81
2021/05/30 06:09:28;;;;;;;6.35;3.50;;;13.50;98.90;;;;;;4712906;30;20060;-81
2021/05/30 06:11:56;;;;;;;3.58;3.10;;;13.70;98.30;;;;;;4712244;30;20068;-81
2021/05/30 06:14:24;;;;;;;6.90;3.55;;;13.90;97.40;;;;;;4713827;30;20064;-82
2021/05/30 06:16:51;;;;;;;4.05;3.65;;;14.10;98.50;;;;;;4713606;30;20045;-81
2021/05/30 06:19:19;;;;;;;4.80;3.28;;;14.30;96.70;;;;;;4712440;30;20147;-82
2021/05/30 06:21:47;;;;;;;3.58;3.20;;;14.70;96.90;;;;;;4713116;30;20068;-81
2021/05/30 06:24:15;;;;;;;6.13;3.65;;;15.10;96.10;;;;;;4711244;30;20057;-82
2021/05/30 06:26:43;;;;;;;4.13;3.47;;;15.40;94.00;;;;;;4712324;30;20138;-81
2021/05/30 06:29:11;;;;;;;5.88;2.70;;;15.60;94.70;;;;;;4712288;30;20579;-81
2021/05/30 06:31:39;;;;;;;4.50;3.90;;;15.60;93.60;;;;;;4713697;30;20053;-81
2021/05/30 06:34:13;;;;;;;2.95;2.63;;;15.70;94.10;;;;;;4713418;30;20053;-81
2021/05/30 06:36:42;;;;;;;5.10;3.58;;;16.00;93.60;;;;;;4724832;30;20071;-80
2021/05/30 06:39:11;;;;;;;4.47;2.95;;;16.40;92.10;;;;;;4747205;30;20087;-80
2021/05/30 06:41:39;;;;;;;4.93;3.00;;;15.40;92.10;;;;;;4731861;30;20059;-81
2021/05/30 06:44:07;;;;;;;3.47;3.05;;;15.30;93.40;;;;;;4732945;30;20060;-82
2021/05/30 06:46:35;;;;;;;4.05;3.63;;;15.10;92.70;;;;;;4720588;30;20052;-80
2021/05/30 06:49:04;;;;;;;4.18;3.13;;;15.10;93.30;;;;;;4697558;30;20050;-80
2021/05/30 06:51:32;;;;;;;3.22;2.65;;;15.20;92.40;;;;;;4713559;30;20535;-79
2021/05/30 06:54:02;;;;;;;10.13;3.28;;;14.90;92.60;;;;;;4713483;30;20072;-79
2021/05/30 06:56:30;;;;;;;5.30;3.22;;;14.60;92.90;;;;;;4717241;30;20057;-80
2021/05/30 06:58:59;;;;;;;5.22;3.70;;;14.50;93.10;;;;;;4717213;30;20068;-81
2021/05/30 07:01:27;;;;;;;5.00;2.95;;;14.70;92.20;;;;;;4700527;30;20075;-80
2021/05/30 07:03:55;;;;;;;2.97;2.67;;;14.90;90.20;;;;;;4717066;30;20049;-85
2021/05/30 07:06:23;;;;;;;3.63;3.30;;;14.80;91.60;;;;;;4715124;30;20056;-82
2021/05/30 07:08:51;;;;;;;4.93;2.75;;;15.50;91.60;;;;;;4714263;30;20049;-84
2021/05/30 07:11:19;;;;;;;5.65;3.50;;;15.90;90.20;;;;;;4714465;30;20609;-85
2021/05/30 07:13:48;;;;;;;4.20;3.17;;;16.40;87.80;;;;;;4701119;30;20060;-85
2021/05/30 07:16:15;;;;;;;5.88;3.88;;;17.40;85.00;;;;;;4716359;30;20057;-77
2021/05/30 07:18:44;;;;;;;2.70;2.50;;;18.40;82.20;;;;;;4716754;30;20049;-76
2021/05/30 07:21:11;;;;;;;7.60;4.88;;;19.30;81.40;;;;;;4714342;30;20087;-81
2021/05/30 07:23:40;;;;;;;3.55;2.95;;;19.60;78.70;;;;;;4699944;30;20064;-82
2021/05/30 07:26:08;;;;;;;3.65;3.05;;;19.50;81.60;;;;;;4715433;30;20084;-80
2021/05/30 07:28:36;;;;;;;6.32;5.13;;;19.30;76.90;;;;;;4714517;30;20416;-81
2021/05/30 07:31:04;;;;;;;5.93;3.80;;;17.30;81.50;;;;;;4700213;30;20068;-81
2021/05/30 07:33:32;;;;;;;3.50;3.20;;;15.70;87.30;;;;;;4700451;30;20109;-82
2021/05/30 07:36:00;;;;;;;3.55;2.75;;;14.90;90.80;;;;;;4723207;30;20075;-81
2021/05/30 07:38:28;;;;;;;5.57;3.55;;;14.00;92.10;;;;;;4751058;30;20427;-81
2021/05/30 07:40:56;;;;;;;4.13;3.58;;;13.70;93.90;;;;;;4739970;30;20059;-83
2021/05/30 07:43:24;;;;;;;4.05;3.55;;;15.40;92.10;;;;;;4721700;30;20060;-81
2021/05/30 07:45:51;;;;;;;5.32;3.65;;;17.90;85.60;;;;;;4734874;30;20056;-82
2021/05/30 07:48:20;;;;;;;4.90;3.05;;;20.40;76.50;;;;;;4735835;30;20069;-82
2021/05/30 07:50:49;;;;;;;3.45;2.40;;;21.60;71.50;;;;;;4720185;30;20063;-82
2021/05/30 07:53:17;;;;;;;3.15;2.83;;;23.00;61.60;;;;;;4734840;30;20059;-81
2021/05/30 07:55:45;;;;;;;3.13;2.42;;;23.40;53.70;;;;;;4733880;30;20056;-82
2021/05/30 07:58:13;;;;;;;4.20;3.25;;;20.00;59.00;;;;;;4735338;30;20052;-82
2021/05/30 08:00:41;;;;;;;2.85;2.08;;;17.00;70.10;;;;;;4749791;30;20056;-81
2021/05/30 08:03:09;;;;;;;3.17;2.25;;;15.40;73.10;;;;;;4702130;30;20508;-81
2021/05/30 08:05:36;;;;;;;3.47;3.03;;;17.00;72.70;;;;;;4732869;30;20053;-82
2021/05/30 08:08:04;;;;;;;6.15;5.18;;;19.30;65.40;;;;;;4732780;30;20412;-82
2021/05/30 08:10:32;;;;;;;3.90;2.53;;;21.70;62.10;;;;;;4684123;30;20056;-82
2021/05/30 08:13:00;;;;;;;3.22;2.78;;;23.10;56.70;;;;;;4714595;30;20053;-82
2021/05/30 08:15:28;;;;;;;2.70;2.33;;;22.40;53.00;;;;;;4716214;30;20386;-82
2021/05/30 08:17:56;;;;;;;3.42;2.72;;;21.30;54.80;;;;;;4715496;30;20060;-81
2021/05/30 08:20:26;;;;;;;2.22;1.90;;;21.30;53.70;;;;;;4714508;30;20069;-82
2021/05/30 08:22:53;;;;;;;2.85;2.65;;;20.20;52.10;;;;;;4700398;30;20061;-83
2021/05/30 08:25:21;;;;;;;4.22;1.75;;;19.30;55.60;;;;;;4712460;30;20053;-82
2021/05/30 08:27:50;;;;;;;2.85;2.47;;;18.10;61.90;;;;;;4715575;30;20064;-81
2021/05/30 08:30:19;;;;;;;3.38;2.50;;;16.30;61.70;;;;;;4699353;30;20064;-80
2021/05/30 08:32:48;;;;;;;2.20;1.55;;;14.80;68.10;;;;;;4699589;30;20493;-81
2021/05/30 08:35:16;;;;;;;7.10;2.70;;;13.60;70.30;;;;;;4713427;30;20076;-81
2021/05/30 08:37:44;;;;;;;9.48;2.30;;;13.60;74.50;;;;;;4716347;30;20492;-82
2021/05/30 08:40:15;;;;;;;5.85;2.47;;;14.30;79.60;;;;;;4729538;30;20064;-81
2021/05/30 08:42:47;;;;;;;2.40;2.13;;;14.80;72.30;;;;;;4702617;30;20055;-83
2021/05/30 08:45:17;;;;;;;7.57;2.78;;;14.60;74.30;;;;;;4731323;30;20063;-83
2021/05/30 08:47:45;;;;;;;3.22;2.65;;;14.80;74.00;;;;;;4703306;30;20064;-81
2021/05/30 08:50:13;;;;;;;6.65;2.67;;;14.80;79.10;;;;;;4681441;30;20052;-81
2021/05/30 08:52:42;;;;;;;2.78;2.58;;;14.60;78.40;;;;;;4682223;30;20053;-81
2021/05/30 08:55:11;;;;;;;5.50;3.05;;;14.60;73.00;;;;;;4695335;30;20053;-81
2021/05/30 08:57:39;;;;;;;3.72;2.75;;;14.50;74.30;;;;;;4697306;30;20053;-83
2021/05/30 09:00:10;;;;;;;9.50;2.90;;;14.10;76.10;;;;;;4710424;30;20057;-80
2021/05/30 09:02:38;;;;;;;3.47;2.40;;;14.30;75.10;;;;;;4709250;30;20049;-80
2021/05/30 09:05:08;;;;;;;4.40;2.40;;;14.40;77.30;;;;;;4713382;30;20056;-82
2021/05/30 09:07:39;;;;;;;3.72;3.15;;;14.20;76.00;;;;;;4685315;30;20060;-80
2021/05/30 09:10:15;;;;;;;3.63;2.50;;;13.90;76.10;;;;;;4711166;30;20076;-81
2021/05/30 09:13:11;;;;;;;3.13;2.70;;;13.80;75.00;;;;;;4715075;30;20057;-80
2021/05/30 09:16:20;;;;;;;2.90;2.70;;;13.70;70.70;;;;;;4714657;30;20065;-81
2021/05/30 09:18:50;;;;;;;4.70;2.88;;;13.90;73.20;;;;;;4713526;30;20049;-81
2021/05/30 09:21:20;;;;;;;2.55;2.35;;;14.30;75.00;;;;;;4712673;30;20052;-82
2021/05/30 09:23:47;;;;;;;2.50;2.30;;;14.40;79.20;;;;;;4714189;30;20508;-83
2021/05/30 09:26:24;;;;;;;3.08;2.72;;;14.50;75.50;;;;;;4712864;30;20056;-82
2021/05/30 09:29:12;;;;;;;3.05;2.75;;;14.10;77.50;;;;;;4713102;30;20045;-80
2021/05/30 09:31:54;;;;;;;4.28;2.38;;;14.00;71.50;;;;;;4712910;30;20412;-79
2021/05/30 09:34:31;;;;;;;5.68;2.25;;;13.90;68.50;;;;;;4698165;30;20049;-80
2021/05/30 09:36:59;;;;;;;3.38;3.08;;;13.70;78.90;;;;;;4738099;30;20052;-82
2021/05/30 09:39:45;;;;;;;7.43;2.08;;;13.80;73.10;;;;;;4731762;30;20059;-82
2021/05/30 09:42:34;;;;;;;3.35;2.22;;;13.90;67.60;;;;;;4718302;30;20063;-81
2021/05/30 09:45:11;;;;;;;3.75;2.40;;;13.70;64.90;;;;;;4749080;30;20061;-82
2021/05/30 09:47:44;;;;;;;3.13;2.25;;;13.50;63.10;;;;;;4718728;30;20495;-81
2021/05/30 09:50:14;;;;;;;1.70;1.60;;;13.80;69.50;;;;;;4748393;30;20479;-83
2021/05/30 09:52:44;;;;;;;2.75;1.95;;;13.90;64.60;;;;;;4749201;30;20055;-83
2021/05/30 09:55:26;;;;;;;5.82;2.55;;;13.90;67.40;;;;;;4747863;30;20060;-82
2021/05/30 09:58:04;;;;;;;4.13;2.70;;;14.10;67.40;;;;;;4733367;30;20411;-82
2021/05/30 10:00:34;;;;;;;5.65;2.55;;;14.20;69.80;;;;;;4703743;30;20559;-82
2021/05/30 10:03:04;;;;;;;4.63;2.65;;;14.10;68.30;;;;;;4718872;30;20048;-82
2021/05/30 10:05:34;;;;;;;3.50;2.15;;;14.10;73.40;;;;;;4748757;30;20048;-84
2021/05/30 10:08:07;;;;;;;3.28;1.88;;;14.30;70.50;;;;;;4749356;30;20056;-81
2021/05/30 10:10:35;;;;;;;2.20;1.80;;;14.40;64.30;;;;;;4712155;30;20531;-82
2021/05/30 10:13:03;;;;;;;1.77;1.67;;;14.40;67.40;;;;;;4713924;30;20065;-79
2021/05/30 10:15:32;;;;;;;2.40;2.17;;;14.30;61.20;;;;;;4713007;30;20413;-83
2021/05/30 10:18:14;;;;;;;1.80;1.55;;;14.10;63.90;;;;;;4712313;30;20064;-81
2021/05/30 10:20:42;;;;;;;2.38;2.17;;;14.20;60.50;;;;;;4712723;30;20413;-79
2021/05/30 10:23:11;;;;;;;2.50;2.17;;;14.20;68.80;;;;;;4713906;30;20072;-78
2021/05/30 10:25:38;;;;;;;4.07;1.77;;;14.40;66.40;;;;;;4710530;30;20131;-82
2021/05/30 10:28:20;;;;;;;3.60;2.40;;;14.40;65.50;;;;;;4698385;30;20061;-81
2021/05/30 10:30:51;;;;;;;3.05;2.40;;;14.50;63.30;;;;;;4712297;30;20424;-83
2021/05/30 10:33:24;;;;;;;3.00;2.77;;;14.30;63.60;;;;;;4712120;30;20045;-82
2021/05/30 10:35:54;;;;;;;3.85;2.65;;;14.40;69.10;;;;;;4719358;30;20048;-81
2021/05/30 10:38:55;;;;;;;2.22;1.73;;;14.40;64.00;;;;;;4732572;30;20052;-82
2021/05/30 10:41:23;;;;;;;7.07;2.22;;;14.40;63.20;;;;;;4708272;30;20055;-83
2021/05/30 10:43:51;;;;;;;2.40;2.13;;;14.50;68.00;;;;;;4732681;30;20059;-80
2021/05/30 10:46:19;;;;;;;2.72;2.30;;;14.40;62.70;;;;;;4740186;30;20509;-82
2021/05/30 10:49:06;;;;;;;2.25;1.95;;;14.20;63.90;;;;;;4712956;30;20053;-79
2021/05/30 10:51:49;;;;;;;3.47;2.05;;;14.50;65.60;;;;;;4713227;30;20057;-79
2021/05/30 10:54:17;;;;;;;2.72;2.00;;;14.50;62.20;;;;;;4709898;30;20057;-79
2021/05/30 10:56:54;;;;;;;2.92;2.28;;;14.30;60.50;;;;;;4712764;30;20060;-80
2021/05/30 10:59:23;;;;;;;2.58;2.33;;;14.30;66.00;;;;;;4698006;30;20515;-81
2021/05/30 11:01:55;;;;;;;2.40;2.20;;;14.40;65.10;;;;;;4694091;30;20068;-81
2021/05/30 11:06:56;;;;;;;2.72;2.13;;;14.40;64.40;;;;;;4708941;30;20049;-79
2021/05/30 11:09:44;;;;;;;3.63;1.98;;;14.20;63.20;;;;;;4694507;30;20058;-80
2021/05/30 11:12:24;;;;;;;2.65;2.42;;;14.20;66.10;;;;;;4694570;30;20061;-83
2021/05/30 11:15:11;;;;;;;3.75;3.35;;;14.50;71.40;;;;;;4707934;30;20054;-81
2021/05/30 11:17:49;;;;;;;2.78;2.50;;;14.60;67.00;;;;;;4693999;30;20058;-80
2021/05/30 11:20:18;;;;;;;3.67;1.90;;;14.60;66.80;;;;;;4695480;30;20406;-81
2021/05/30 11:22:54;;;;;;;6.05;2.40;;;14.80;69.30;;;;;;4693507;30;20812;-83
2021/05/30 11:25:36;;;;;;;3.90;3.45;;;14.80;66.90;;;;;;4664415;30;20412;-80
2021/05/30 11:28:15;;;;;;;3.70;3.00;;;14.70;74.10;;;;;;4680941;30;20073;-81
2021/05/30 11:30:59;;;;;;;5.05;2.83;;;14.70;68.90;;;;;;4679678;30;20056;-81
2021/05/30 11:33:30;;;;;;;3.42;2.95;;;14.80;67.30;;;;;;4696104;30;20053;-81
2021/05/30 11:36:03;;;;;;;4.60;3.17;;;14.70;73.70;;;;;;4716952;30;20486;-79
2021/05/30 11:38:44;;;;;;;3.88;2.85;;;14.80;64.30;;;;;;4733708;30;20061;-81
2021/05/30 11:41:31;;;;;;;3.75;2.65;;;14.80;69.00;;;;;;4731009;30;20052;-82
2021/05/30 11:44:10;;;;;;;5.80;3.13;;;15.00;75.40;;;;;;4732983;30;20059;-82
2021/05/30 11:46:49;;;;;;;4.45;2.35;;;14.50;65.60;;;;;;4717814;30;20060;-81
2021/05/30 11:49:17;;;;;;;3.35;3.15;;;14.60;71.80;;;;;;4733327;30;20063;-81
2021/05/30 11:51:57;;;;;;;3.45;2.92;;;14.50;64.70;;;;;;4717566;30;20409;-81
2021/05/30 11:54:28;;;;;;;3.85;3.50;;;14.60;65.10;;;;;;4732177;30;20424;-79
2021/05/30 11:56:58;;;;;;;4.78;2.50;;;14.90;64.90;;;;;;4731949;30;20053;-81
2021/05/30 11:59:28;;;;;;;3.33;2.88;;;14.90;70.40;;;;;;4734012;30;20076;-81
2021/05/30 12:01:56;;;;;;;2.67;2.47;;;14.70;63.20;;;;;;4731375;30;20084;-81
2021/05/30 12:04:26;;;;;;;2.83;2.42;;;14.80;69.60;;;;;;4717356;30;20064;-81
2021/05/30 12:06:54;;;;;;;4.60;3.47;;;15.00;65.80;;;;;;4733774;30;20064;-81
2021/05/30 12:09:22;;;;;;;5.97;1.90;;;15.00;62.90;;;;;;4713710;30;20056;-82
2021/05/30 12:11:50;;;;;;;2.30;2.00;;;14.90;66.30;;;;;;4697252;30;20057;-81
2021/05/30 12:14:18;;;;;;;3.70;2.60;;;15.00;67.90;;;;;;4697373;30;20524;-82
2021/05/30 12:16:47;;;;;;;5.90;3.08;;;15.00;67.80;;;;;;4697882;30;20046;-81
2021/05/30 12:19:15;;;;;;;3.38;2.78;;;15.00;62.80;;;;;;4711545;30;20061;-82
2021/05/30 12:21:47;;;;;;;4.28;2.50;;;15.10;66.10;;;;;;4696363;30;20496;-80
2021/05/30 12:24:17;;;;;;;5.28;3.80;;;14.90;64.80;;;;;;4681494;30;20064;-81
2021/05/30 12:26:47;;;;;;;5.20;3.47;;;14.60;63.50;;;;;;4698160;30;20054;-81
2021/05/30 12:29:19;;;;;;;5.43;2.80;;;14.70;66.30;;;;;;4697154;30;20042;-80
2021/05/30 12:31:47;;;;;;;3.65;2.80;;;14.60;67.10;;;;;;4697946;30;20062;-80
2021/05/30 12:34:16;;;;;;;4.28;3.58;;;14.90;66.10;;;;;;4709936;30;20084;-81
2021/05/30 12:36:46;;;;;;;2.97;2.40;;;14.70;66.10;;;;;;4718069;30;20459;-82
2021/05/30 12:39:25;;;;;;;2.93;2.57;;;14.90;67.20;;;;;;4731675;30;20080;-81
2021/05/30 12:41:56;;;;;;;2.33;2.13;;;15.00;66.80;;;;;;4731735;30;20065;-82
2021/05/30 12:44:31;;;;;;;4.93;2.38;;;15.10;67.70;;;;;;4731436;30;20512;-81
2021/05/30 12:47:04;;;;;;;2.58;2.08;;;15.20;64.20;;;;;;4715456;30;20065;-80
2021/05/30 12:49:32;;;;;;;3.80;2.10;;;15.00;61.80;;;;;;4710286;30;20485;-80
2021/05/30 12:52:05;;;;;;;2.58;2.00;;;15.10;61.60;;;;;;4710781;30;20057;-80
2021/05/30 12:54:35;;;;;;;4.45;2.15;;;15.10;68.00;;;;;;4696184;30;20126;-80
2021/05/30 12:57:04;;;;;;;4.40;2.83;;;15.30;62.10;;;;;;4697672;30;20061;-81
2021/05/30 12:59:42;;;;;;;9.02;2.85;;;15.50;66.50;;;;;;4698133;30;20327;-81
2021/05/30 13:02:11;;;;;;;4.65;2.97;;;15.40;67.40;;;;;;4705310;30;20065;-81
2021/05/30 13:04:45;;;;;;;4.10;2.65;;;15.50;66.90;;;;;;4714086;30;20146;-83
2021/05/30 13:07:18;;;;;;;3.95;2.90;;;15.50;69.10;;;;;;4714240;30;20084;-81
2021/05/30 13:09:52;;;;;;;3.15;2.70;;;15.50;64.40;;;;;;4713126;30;20064;-83
2021/05/30 13:12:41;;;;;;;2.78;2.35;;;15.60;64.30;;;;;;4721076;30;20068;-81
2021/05/30 13:15:19;;;;;;;4.05;3.72;;;15.70;67.40;;;;;;4699463;30;20056;-79
2021/05/30 13:17:56;;;;;;;4.07;3.55;;;15.70;65.60;;;;;;4714048;30;20060;-82